Time;durP1;ratioP1;P1;durP2;ratioP2;P2;SDS_P1;SDS_P2;PMS_P1;PMS_P2;Temp;Humidity;BMP_temperature;BMP_pressure;BME280_temperature;BME280_humidity;BME280_pressure;Samples;Min_cycle;Max_cycle;Signal;HPM_P1;HPM_P2
2022/07/18 00:03:43;;;;;;;3.83;1.75;;;19.90;55.30;;;;;;20491739;28;20478;-75
2022/07/18 00:13:44;;;;;;;5.10;1.83;;;19.90;55.20;;;;;;20505369;28;20127;-75
2022/07/18 00:23:44;;;;;;;5.30;2.20;;;19.80;55.10;;;;;;20484237;28;20561;-76
2022/07/18 00:33:45;;;;;;;4.78;1.55;;;19.70;55.00;;;;;;20540736;28;20038;-76
2022/07/18 00:43:46;;;;;;;2.40;1.50;;;19.70;55.10;;;;;;20528666;28;20114;-75
2022/07/18 00:53:47;;;;;;;5.90;1.58;;;19.70;55.10;;;;;;20867472;23;20142;-76
2022/07/18 01:03:48;;;;;;;3.60;1.55;;;19.60;55.00;;;;;;20511027;28;20486;-75
2022/07/18 01:13:49;;;;;;;2.57;1.43;;;19.60;54.90;;;;;;20503717;28;20106;-76
2022/07/18 01:23:50;;;;;;;1.63;1.15;;;19.60;54.80;;;;;;20530289;28;20154;-75
2022/07/18 01:33:54;;;;;;;2.65;1.50;;;19.50;54.80;;;;;;20504651;28;20042;-77
2022/07/18 01:43:54;;;;;;;2.53;1.33;;;19.40;54.70;;;;;;20500629;28;20039;-75
2022/07/18 01:53:59;;;;;;;2.42;1.05;;;19.40;54.70;;;;;;20537860;28;20122;-77
2022/07/18 02:03:59;;;;;;;2.45;1.45;;;19.30;54.70;;;;;;20489402;28;20130;-75
2022/07/18 02:14:00;;;;;;;3.50;1.30;;;19.30;54.70;;;;;;20532669;28;20137;-77
2022/07/18 02:24:00;;;;;;;2.60;1.45;;;19.30;54.70;;;;;;20535457;28;20664;-76
2022/07/18 02:34:01;;;;;;;3.03;1.10;;;19.20;54.70;;;;;;20527881;28;20434;-75
2022/07/18 02:44:02;;;;;;;1.20;0.82;;;19.20;54.60;;;;;;20548539;28;20127;-75
2022/07/18 02:54:02;;;;;;;2.22;1.20;;;19.20;54.60;;;;;;20494328;28;20643;-75
2022/07/18 03:04:03;;;;;;;2.30;1.35;;;19.10;54.50;;;;;;20498084;28;20039;-77
2022/07/18 03:14:04;;;;;;;4.70;1.30;;;19.10;54.50;;;;;;20529238;28;20030;-76
2022/07/18 03:24:04;;;;;;;3.07;1.30;;;19.00;54.50;;;;;;20515339;28;20126;-76
2022/07/18 03:34:05;;;;;;;2.35;1.25;;;19.00;54.50;;;;;;20513583;28;20286;-75
2022/07/18 03:44:06;;;;;;;4.72;1.20;;;19.00;54.50;;;;;;20512134;28;20046;-76
2022/07/18 03:54:06;;;;;;;3.00;1.40;;;18.90;54.50;;;;;;20506557;28;20039;-78
2022/07/18 04:04:07;;;;;;;1.92;1.02;;;18.90;54.70;;;;;;20496787;28;20039;-75
2022/07/18 04:14:07;;;;;;;4.07;1.20;;;18.90;54.60;;;;;;20539170;28;20085;-76
2022/07/18 04:24:08;;;;;;;3.28;1.50;;;18.80;54.70;;;;;;20549708;28;20121;-75
2022/07/18 04:34:09;;;;;;;3.38;0.95;;;18.80;54.90;;;;;;20518327;28;20447;-74
2022/07/18 04:44:09;;;;;;;1.50;1.13;;;18.80;55.20;;;;;;20516062;28;20043;-75
2022/07/18 04:54:12;;;;;;;2.38;1.27;;;18.70;55.40;;;;;;20493449;28;20039;-77
2022/07/18 05:04:12;;;;;;;2.60;1.40;;;18.70;55.70;;;;;;20476741;28;20051;-76
2022/07/18 05:14:13;;;;;;;4.40;1.30;;;18.80;56.20;;;;;;20495913;28;20039;-75
2022/07/18 05:24:13;;;;;;;2.45;1.27;;;18.80;56.60;;;;;;20521060;28;20385;-75
2022/07/18 05:34:14;;;;;;;3.80;1.10;;;18.80;57.10;;;;;;20519189;28;20043;-75
2022/07/18 05:44:15;;;;;;;3.27;1.20;;;18.80;57.60;;;;;;20536269;28;20039;-74
2022/07/18 05:54:18;;;;;;;5.00;1.80;;;18.80;57.90;;;;;;20503319;28;20463;-76
2022/07/18 06:04:20;;;;;;;2.47;1.20;;;18.90;58.30;;;;;;20512135;28;20298;-75
2022/07/18 06:14:20;;;;;;;5.28;2.47;;;19.00;58.80;;;;;;20517314;28;20031;-75
2022/07/18 06:24:21;;;;;;;4.00;1.58;;;19.10;59.20;;;;;;20533982;28;20482;-75
2022/07/18 06:34:21;;;;;;;2.28;1.30;;;19.30;59.30;;;;;;20532674;28;20035;-76
2022/07/18 06:44:22;;;;;;;2.58;1.48;;;19.40;59.20;;;;;;20536923;28;20126;-73
2022/07/18 06:54:27;;;;;;;3.30;1.30;;;19.50;59.00;;;;;;20524537;28;20039;-75
2022/07/18 07:04:28;;;;;;;5.67;1.30;;;19.60;58.70;;;;;;20497814;28;20042;-77
2022/07/18 07:14:28;;;;;;;6.40;1.63;;;19.60;58.60;;;;;;20458508;28;20034;-76
2022/07/18 07:24:29;;;;;;;3.55;2.10;;;19.80;58.60;;;;;;20496478;28;20039;-77
2022/07/18 07:34:30;;;;;;;4.00;1.52;;;19.90;58.40;;;;;;20507816;28;20035;-76
2022/07/18 07:44:31;;;;;;;1.23;0.93;;;19.90;58.20;;;;;;20474534;28;20046;-74
2022/07/18 07:54:32;;;;;;;5.65;1.58;;;20.00;58.00;;;;;;20471152;28;20129;-74
2022/07/18 08:04:33;;;;;;;2.70;1.38;;;20.00;57.70;;;;;;20502442;28;20039;-74
2022/07/18 08:14:37;;;;;;;3.45;1.27;;;20.00;57.40;;;;;;20537800;28;20047;-74
2022/07/18 08:24:38;;;;;;;2.17;1.30;;;20.10;57.20;;;;;;20539795;28;20397;-74
2022/07/18 08:34:39;;;;;;;3.50;1.33;;;20.20;57.00;;;;;;20511548;28;20034;-76
2022/07/18 08:44:40;;;;;;;1.90;1.08;;;20.20;56.80;;;;;;20504352;28;20070;-73
2022/07/18 08:54:41;;;;;;;3.60;1.30;;;20.20;56.50;;;;;;20508933;28;20452;-74
2022/07/18 09:04:42;;;;;;;1.80;1.10;;;20.30;56.20;;;;;;20460727;28;20049;-74
2022/07/18 09:14:44;;;;;;;1.60;0.82;;;20.30;56.20;;;;;;20481050;28;20474;-74
2022/07/18 09:25:13;;;;;;;1.30;0.90;;;20.30;56.10;;;;;;20461958;28;20079;-70
2022/07/18 09:35:18;;;;;;;1.25;0.90;;;20.40;56.00;;;;;;20484033;28;20038;-76
2022/07/18 09:45:23;;;;;;;1.65;0.80;;;20.40;56.00;;;;;;20469766;28;20043;-75
2022/07/18 09:55:25;;;;;;;1.60;0.82;;;20.40;56.00;;;;;;20503764;28;20043;-75
2022/07/18 10:05:30;;;;;;;2.55;0.95;;;20.50;55.80;;;;;;20493592;28;20473;-71
2022/07/18 10:15:32;;;;;;;1.73;0.90;;;20.50;55.70;;;;;;20481020;28;20039;-76
2022/07/18 10:25:33;;;;;;;2.67;1.13;;;20.50;55.70;;;;;;20530574;28;20034;-75
2022/07/18 10:35:59;;;;;;;2.45;1.15;;;20.60;55.80;;;;;;20502000;28;20436;-78
2022/07/18 10:46:02;;;;;;;2.97;1.25;;;20.60;55.60;;;;;;20555549;28;20053;-77
2022/07/18 10:56:02;;;;;;;1.50;0.70;;;20.70;55.50;;;;;;20535666;28;20039;-77
2022/07/18 11:06:03;;;;;;;4.22;1.00;;;20.70;55.40;;;;;;20487575;28;20546;-77
2022/07/18 11:16:13;;;;;;;2.20;1.10;;;20.70;55.30;;;;;;20525657;28;20117;-76
2022/07/18 11:26:15;;;;;;;2.83;1.23;;;20.80;55.20;;;;;;20549290;28;20039;-75
2022/07/18 11:36:18;;;;;;;1.92;1.05;;;20.80;55.10;;;;;;20524935;28;20122;-77
2022/07/18 11:46:25;;;;;;;1.52;0.73;;;20.80;55.10;;;;;;20514339;28;20050;-77
2022/07/18 11:56:25;;;;;;;2.92;1.15;;;20.90;55.10;;;;;;20523596;28;20047;-82
2022/07/18 12:06:28;;;;;;;2.65;0.82;;;20.90;55.10;;;;;;20471660;28;20043;-80
2022/07/18 12:16:56;;;;;;;1.05;0.77;;;20.90;55.00;;;;;;20483686;28;20030;-81
2022/07/18 12:27:16;;;;;;;1.65;0.88;;;20.90;55.00;;;;;;20526983;28;20054;-82
2022/07/18 12:37:23;;;;;;;1.92;1.17;;;21.00;54.80;;;;;;20519680;28;20050;-75
2022/07/18 12:47:24;;;;;;;2.58;0.85;;;21.10;54.90;;;;;;20534178;28;20044;-73
2022/07/18 12:57:24;;;;;;;2.03;0.90;;;21.20;54.80;;;;;;20468828;28;20405;-73
2022/07/18 13:07:25;;;;;;;1.77;0.77;;;21.20;54.80;;;;;;20501064;28;20047;-73
2022/07/18 13:17:25;;;;;;;0.98;0.40;;;21.20;54.90;;;;;;20500391;28;20294;-73
2022/07/18 13:27:26;;;;;;;2.05;0.90;;;21.30;55.00;;;;;;20486811;28;20047;-74
2022/07/18 13:37:27;;;;;;;0.73;0.50;;;21.40;54.90;;;;;;20502480;28;20122;-74
2022/07/18 13:47:27;;;;;;;1.60;0.60;;;21.50;55.00;;;;;;20478222;28;20847;-75
2022/07/18 13:57:28;;;;;;;2.10;0.90;;;21.40;54.90;;;;;;20516756;28;20412;-74
2022/07/18 14:07:28;;;;;;;4.20;0.50;;;21.60;54.80;;;;;;20517624;28;20303;-75
2022/07/18 14:17:33;;;;;;;1.38;0.70;;;21.60;54.80;;;;;;20518126;28;20038;-79
2022/07/18 14:27:33;;;;;;;0.88;0.40;;;21.70;54.80;;;;;;20535960;28;20035;-75
2022/07/18 14:37:34;;;;;;;3.72;0.75;;;21.80;54.80;;;;;;20543172;28;20565;-79
2022/07/18 14:47:35;;;;;;;2.83;1.03;;;21.90;54.60;;;;;;20523733;28;20039;-76
2022/07/18 14:57:36;;;;;;;3.10;1.20;;;22.00;54.30;;;;;;20514269;28;20425;-78
2022/07/18 15:07:37;;;;;;;1.58;1.05;;;22.20;53.60;;;;;;20527693;28;20130;-76
2022/07/18 15:17:37;;;;;;;4.03;1.13;;;22.30;53.30;;;;;;20534919;28;20035;-77
2022/07/18 15:27:38;;;;;;;4.85;1.05;;;22.30;53.20;;;;;;20530333;28;20046;-79
2022/07/18 15:37:39;;;;;;;4.25;1.27;;;22.30;53.30;;;;;;20527033;28;20031;-82
2022/07/18 15:47:39;;;;;;;4.10;0.95;;;22.30;53.40;;;;;;20533363;28;20034;-78
2022/07/18 15:57:42;;;;;;;1.35;0.60;;;22.30;53.50;;;;;;20496009;28;20035;-84
2022/07/18 16:07:44;;;;;;;1.85;0.98;;;22.30;53.30;;;;;;20479814;28;20070;-82
2022/07/18 16:17:44;;;;;;;1.88;1.02;;;22.40;53.10;;;;;;20450519;28;20035;-82
2022/07/18 16:27:46;;;;;;;3.00;0.60;;;22.50;53.10;;;;;;20473697;28;20035;-79
2022/07/18 16:37:48;;;;;;;2.05;0.85;;;22.50;53.10;;;;;;20485255;28;20737;-82
2022/07/18 16:47:49;;;;;;;1.92;1.20;;;22.60;53.10;;;;;;20501568;28;20479;-81
2022/07/18 16:57:49;;;;;;;3.05;1.08;;;22.60;53.10;;;;;;20461545;28;20126;-83
2022/07/18 17:07:50;;;;;;;1.45;0.90;;;22.60;53.10;;;;;;20531408;28;20490;-79
2022/07/18 17:17:51;;;;;;;2.42;0.95;;;22.70;53.10;;;;;;20520327;28;20047;-81
2022/07/18 17:27:51;;;;;;;3.60;1.00;;;22.60;53.00;;;;;;20524918;28;20115;-74
2022/07/18 17:37:52;;;;;;;5.03;1.10;;;22.60;53.10;;;;;;20505209;29;20082;-74
2022/07/18 17:47:53;;;;;;;3.97;1.10;;;22.50;53.10;;;;;;20485730;28;20390;-74
2022/07/18 17:57:54;;;;;;;2.28;0.82;;;22.50;54.00;;;;;;20516292;28;20043;-75
2022/07/18 18:07:54;;;;;;;1.80;1.25;;;22.50;53.50;;;;;;20555046;28;20050;-75
2022/07/18 18:17:55;;;;;;;1.73;1.13;;;22.40;53.70;;;;;;20482930;29;20159;-75
2022/07/18 18:27:55;;;;;;;2.20;1.00;;;22.40;53.80;;;;;;20498853;29;20062;-75
2022/07/18 18:38:00;;;;;;;1.52;1.02;;;22.40;54.10;;;;;;20481333;28;20126;-77
2022/07/18 18:48:02;;;;;;;1.88;0.90;;;22.30;54.30;;;;;;20534108;28;20046;-74
2022/07/18 18:58:03;;;;;;;2.05;0.93;;;22.30;54.40;;;;;;20507001;28;20047;-75
2022/07/18 19:08:04;;;;;;;2.97;0.85;;;22.30;54.50;;;;;;20503409;28;20043;-78
2022/07/18 19:18:04;;;;;;;3.17;0.93;;;22.20;54.70;;;;;;20465498;28;20035;-78
2022/07/18 19:28:06;;;;;;;1.38;0.88;;;22.20;54.90;;;;;;20515653;28;20042;-78
2022/07/18 19:38:07;;;;;;;2.97;1.00;;;22.20;55.10;;;;;;20489312;28;20042;-74
2022/07/18 19:48:07;;;;;;;1.80;0.90;;;22.20;55.20;;;;;;20523154;28;20053;-79
2022/07/18 19:58:08;;;;;;;2.27;0.83;;;22.10;55.20;;;;;;20477902;28;20086;-84
2022/07/18 20:08:12;;;;;;;5.03;1.00;;;22.10;55.40;;;;;;20475938;28;20377;-84
2022/07/18 20:18:12;;;;;;;3.42;0.80;;;22.10;55.60;;;;;;20463129;28;20082;-85
2022/07/18 20:28:13;;;;;;;1.93;1.20;;;22.10;55.70;;;;;;20520354;28;20477;-85
2022/07/18 20:38:13;;;;;;;2.23;0.97;;;22.10;55.80;;;;;;20527173;28;20325;-85
2022/07/18 20:48:14;;;;;;;1.60;0.88;;;22.00;55.90;;;;;;20513506;28;20299;-84
2022/07/18 20:58:15;;;;;;;5.05;0.95;;;22.10;56.00;;;;;;20526236;28;20051;-83
2022/07/18 21:08:15;;;;;;;3.75;1.15;;;22.00;56.00;;;;;;20528238;28;20054;-83
2022/07/18 21:18:16;;;;;;;2.25;1.23;;;22.00;56.00;;;;;;20539270;28;20062;-84
2022/07/18 21:28:17;;;;;;;2.17;0.85;;;22.00;56.10;;;;;;20515808;28;20133;-84
2022/07/18 21:38:18;;;;;;;1.83;1.00;;;22.00;56.20;;;;;;20510909;28;20077;-83
2022/07/18 21:48:19;;;;;;;4.68;1.17;;;22.00;56.20;;;;;;20525294;28;20118;-84
2022/07/18 21:58:19;;;;;;;1.83;1.13;;;22.00;56.20;;;;;;20498385;28;20032;-84
2022/07/18 22:08:20;;;;;;;2.72;1.25;;;22.00;56.20;;;;;;20460154;28;20078;-83
2022/07/18 22:18:20;;;;;;;2.92;1.20;;;22.00;56.20;;;;;;20547133;28;20030;-84
2022/07/18 22:28:21;;;;;;;3.78;1.50;;;22.00;56.50;;;;;;20541257;28;20094;-84
2022/07/18 22:38:21;;;;;;;3.55;1.27;;;22.00;56.30;;;;;;20510556;28;20030;-86
2022/07/18 22:48:22;;;;;;;3.10;1.40;;;22.00;56.30;;;;;;20522209;28;20043;-85
2022/07/18 22:58:23;;;;;;;5.10;1.52;;;22.00;56.30;;;;;;20524956;28;20177;-85
2022/07/18 23:08:23;;;;;;;4.43;1.30;;;22.00;56.30;;;;;;20501770;28;20050;-83
2022/07/18 23:18:24;;;;;;;2.65;1.67;;;21.90;56.30;;;;;;20542990;28;20086;-84
2022/07/18 23:28:24;;;;;;;2.72;1.50;;;22.00;56.30;;;;;;20535158;28;20067;-85
2022/07/18 23:38:25;;;;;;;3.70;1.50;;;21.90;56.20;;;;;;20542257;28;20118;-84
2022/07/18 23:48:25;;;;;;;2.55;1.38;;;22.00;56.30;;;;;;20558794;28;20046;-84
2022/07/18 23:58:26;;;;;;;2.05;1.30;;;21.90;56.10;;;;;;20480398;28;20054;-84
